Time;durP1;ratioP1;P1;durP2;ratioP2;P2;SDS_P1;SDS_P2;PMS_P1;PMS_P2;Temp;Humidity;BMP_temperature;BMP_pressure;BME280_temperature;BME280_humidity;BME280_pressure;Samples;Min_cycle;Max_cycle;Signal;HPM_P1;HPM_P2
2023/12/22 00:00:48;;;;;;;16.80;2.22;;;10.60;80.80;;;;;;5059145;28;20029;-66
2023/12/22 00:03:15;;;;;;;13.98;1.95;;;10.70;81.30;;;;;;5059710;28;20033;-68
2023/12/22 00:05:41;;;;;;;15.32;2.67;;;10.70;75.50;;;;;;5059718;28;20112;-68
2023/12/22 00:08:06;;;;;;;12.32;2.20;;;10.70;72.50;;;;;;5059796;28;20115;-68
2023/12/22 00:10:32;;;;;;;16.98;2.67;;;10.60;75.50;;;;;;5059723;28;20094;-67
2023/12/22 00:12:58;;;;;;;15.45;2.47;;;10.60;80.80;;;;;;5059679;28;20040;-71
2023/12/22 00:15:24;;;;;;;22.48;2.53;;;10.50;82.60;;;;;;5058771;28;20127;-68
2023/12/22 00:17:50;;;;;;;10.02;2.53;;;10.50;84.60;;;;;;5058827;28;20065;-68
2023/12/22 00:20:16;;;;;;;15.02;2.78;;;10.50;81.80;;;;;;5058082;28;20065;-68
2023/12/22 00:22:42;;;;;;;19.23;2.60;;;10.50;84.60;;;;;;5058655;28;20375;-70
2023/12/22 00:25:09;;;;;;;11.57;2.42;;;10.50;86.70;;;;;;5059499;28;20323;-72
2023/12/22 00:27:35;;;;;;;14.10;2.55;;;10.50;85.00;;;;;;5075197;28;20037;-69
2023/12/22 00:30:01;;;;;;;13.50;2.03;;;10.50;87.50;;;;;;5075116;28;20132;-71
2023/12/22 00:32:26;;;;;;;10.52;1.80;;;10.50;85.00;;;;;;5058547;28;20052;-70
2023/12/22 00:34:52;;;;;;;13.65;2.13;;;10.60;81.70;;;;;;5075020;28;20124;-69
2023/12/22 00:37:18;;;;;;;10.70;2.00;;;10.60;82.00;;;;;;5058192;28;20404;-69
2023/12/22 00:39:44;;;;;;;11.65;2.08;;;10.60;84.00;;;;;;5058972;28;20037;-69
2023/12/22 00:42:10;;;;;;;13.52;2.25;;;10.60;83.70;;;;;;5058147;28;20044;-66
2023/12/22 00:44:36;;;;;;;17.48;2.25;;;10.70;78.20;;;;;;5058410;28;20033;-69
2023/12/22 00:47:02;;;;;;;13.65;2.05;;;10.60;77.60;;;;;;5058850;28;20071;-68
2023/12/22 00:49:28;;;;;;;9.02;2.08;;;10.60;77.10;;;;;;5058911;28;20029;-68
2023/12/22 00:51:53;;;;;;;14.35;2.25;;;10.50;78.90;;;;;;5058785;28;20358;-71
2023/12/22 00:54:19;;;;;;;14.40;2.65;;;10.50;83.00;;;;;;5058061;28;20037;-70
2023/12/22 00:56:45;;;;;;;11.63;2.17;;;10.50;83.00;;;;;;5058001;28;20367;-66
2023/12/22 00:59:11;;;;;;;15.35;2.53;;;10.50;89.90;;;;;;5058761;28;20115;-72
2023/12/22 01:01:37;;;;;;;18.73;2.78;;;10.40;92.10;;;;;;5058032;28;20458;-71
2023/12/22 01:04:03;;;;;;;15.43;2.70;;;10.50;91.50;;;;;;5058519;28;20039;-69
2023/12/22 01:06:29;;;;;;;16.75;3.20;;;10.50;93.80;;;;;;5057803;28;20039;-69
2023/12/22 01:08:54;;;;;;;11.18;2.65;;;10.50;92.90;;;;;;5024397;28;20119;-70
2023/12/22 01:11:20;;;;;;;16.80;2.97;;;10.50;91.70;;;;;;5058568;28;20435;-67
2023/12/22 01:13:46;;;;;;;15.68;2.65;;;10.60;90.40;;;;;;5058473;28;20102;-68
2023/12/22 01:16:12;;;;;;;17.30;3.33;;;10.60;85.70;;;;;;5058320;28;20403;-69
2023/12/22 01:18:39;;;;;;;12.70;2.40;;;10.60;96.70;;;;;;5058296;28;20073;-70
2023/12/22 01:21:05;;;;;;;13.80;1.88;;;10.50;95.30;;;;;;5058200;28;20079;-68
2023/12/22 01:23:31;;;;;;;18.38;2.17;;;10.30;90.10;;;;;;5057513;28;20048;-64
2023/12/22 01:25:57;;;;;;;17.88;2.90;;;10.20;97.70;;;;;;5058088;28;20037;-68
2023/12/22 01:28:23;;;;;;;18.35;3.05;;;10.20;99.90;;;;;;5058108;28;20017;-68
2023/12/22 01:30:49;;;;;;;24.63;2.95;;;10.20;99.90;;;;;;5057864;28;20093;-71
2023/12/22 01:33:15;;;;;;;19.10;2.50;;;10.20;99.90;;;;;;5057565;28;20328;-67
2023/12/22 01:35:41;;;;;;;21.55;2.40;;;10.30;99.90;;;;;;5057919;28;20032;-68
2023/12/22 01:38:07;;;;;;;14.00;2.80;;;10.20;99.90;;;;;;5057011;28;20388;-66
2023/12/22 01:40:33;;;;;;;18.45;3.17;;;10.20;99.90;;;;;;5056985;28;20033;-67
2023/12/22 01:42:59;;;;;;;16.85;2.63;;;10.40;99.90;;;;;;5057798;28;20040;-68
2023/12/22 01:45:25;;;;;;;18.67;3.33;;;10.40;99.90;;;;;;5057898;28;20120;-71
2023/12/22 01:47:51;;;;;;;16.55;3.30;;;10.30;99.90;;;;;;5056945;28;20398;-73
2023/12/22 01:50:17;;;;;;;18.70;3.08;;;10.10;99.90;;;;;;5058171;28;20032;-73
2023/12/22 01:52:44;;;;;;;20.80;2.80;;;10.00;99.90;;;;;;5040411;28;20443;-71
2023/12/22 01:55:12;;;;;;;18.90;3.38;;;10.00;99.90;;;;;;5057626;28;20044;-70
2023/12/22 01:57:40;;;;;;;23.05;3.03;;;9.90;99.90;;;;;;5073382;28;20059;-70
2023/12/22 02:00:07;;;;;;;14.63;2.58;;;9.90;99.90;;;;;;5073513;28;20355;-70
2023/12/22 02:02:38;;;;;;;15.40;2.40;;;9.90;99.90;;;;;;5056862;28;20110;-70
2023/12/22 02:05:05;;;;;;;17.88;3.13;;;9.90;99.90;;;;;;5056620;28;20055;-71
2023/12/22 02:07:32;;;;;;;19.25;2.92;;;9.90;99.90;;;;;;5057228;28;20056;-71
2023/12/22 02:09:57;;;;;;;16.73;2.65;;;9.90;99.90;;;;;;5040067;28;20120;-71
2023/12/22 02:12:23;;;;;;;14.45;2.80;;;9.90;99.30;;;;;;5073370;28;20128;-70
2023/12/22 02:14:49;;;;;;;16.35;2.72;;;10.10;95.80;;;;;;5073170;28;20033;-68
2023/12/22 02:17:32;;;;;;;13.50;2.28;;;10.20;91.30;;;;;;5057252;28;20040;-68
2023/12/22 02:19:58;;;;;;;16.55;2.90;;;10.20;80.70;;;;;;5057251;28;20108;-69
2023/12/22 02:22:24;;;;;;;13.05;2.55;;;10.30;78.50;;;;;;5057187;28;20411;-68
2023/12/22 02:24:50;;;;;;;14.05;2.55;;;10.30;81.20;;;;;;5056458;28;20049;-69
2023/12/22 02:27:33;;;;;;;15.88;2.17;;;10.30;81.90;;;;;;5072784;28;20033;-66
2023/12/22 02:30:13;;;;;;;9.52;2.45;;;10.30;82.40;;;;;;5057003;28;20420;-68
2023/12/22 02:32:43;;;;;;;14.43;2.08;;;10.40;87.80;;;;;;5072950;28;20162;-71
2023/12/22 02:35:17;;;;;;;12.43;2.15;;;10.40;89.90;;;;;;5057192;28;20052;-70
2023/12/22 02:37:45;;;;;;;12.02;2.20;;;10.30;91.30;;;;;;5056924;28;20029;-71
2023/12/22 02:40:11;;;;;;;12.88;2.00;;;10.40;92.20;;;;;;5072780;28;20036;-72
2023/12/22 02:42:38;;;;;;;13.98;2.08;;;10.40;92.60;;;;;;5056440;28;20029;-66
2023/12/22 02:45:05;;;;;;;15.80;2.08;;;10.40;92.90;;;;;;5056375;28;20056;-71
2023/12/22 02:47:33;;;;;;;14.45;2.13;;;10.40;93.80;;;;;;5056358;28;20370;-70
2023/12/22 02:49:59;;;;;;;14.25;2.13;;;10.40;92.90;;;;;;5056125;28;20073;-69
2023/12/22 02:52:25;;;;;;;17.55;2.58;;;10.50;93.10;;;;;;5056586;28;20427;-67
2023/12/22 02:54:50;;;;;;;20.38;2.55;;;10.40;91.10;;;;;;5056752;28;20028;-68
2023/12/22 02:57:16;;;;;;;11.85;2.45;;;10.50;91.50;;;;;;5056577;28;20037;-70
2023/12/22 02:59:42;;;;;;;14.38;2.40;;;10.40;91.30;;;;;;5056681;28;20025;-69
2023/12/22 03:02:08;;;;;;;14.90;2.08;;;10.40;90.10;;;;;;5056724;28;20091;-69
2023/12/22 03:04:34;;;;;;;16.95;2.65;;;10.20;90.60;;;;;;5057180;28;20112;-64
2023/12/22 03:06:59;;;;;;;12.93;3.03;;;10.20;92.00;;;;;;5056548;28;20033;-70
2023/12/22 03:09:25;;;;;;;13.05;2.08;;;10.20;90.00;;;;;;5056122;28;20048;-69
2023/12/22 03:11:56;;;;;;;16.67;2.60;;;10.30;89.30;;;;;;5072421;28;20352;-71
2023/12/22 03:14:22;;;;;;;14.65;2.67;;;10.30;87.50;;;;;;5056600;28;20340;-67
2023/12/22 03:16:47;;;;;;;15.07;2.38;;;10.40;87.90;;;;;;5056616;28;20098;-67
2023/12/22 03:19:13;;;;;;;13.07;2.80;;;10.30;90.60;;;;;;5055775;28;20119;-66
2023/12/22 03:21:39;;;;;;;13.07;2.17;;;10.40;92.60;;;;;;5072542;28;20025;-70
2023/12/22 03:24:05;;;;;;;11.55;2.40;;;10.30;95.10;;;;;;5056271;28;20366;-70
2023/12/22 03:26:31;;;;;;;14.70;2.53;;;10.40;96.00;;;;;;5056362;28;20099;-69
2023/12/22 03:28:56;;;;;;;17.20;2.55;;;10.30;97.10;;;;;;5055550;28;20354;-69
2023/12/22 03:31:22;;;;;;;16.83;2.63;;;10.40;99.80;;;;;;5056531;28;20037;-69
2023/12/22 03:33:48;;;;;;;13.65;2.50;;;10.40;99.90;;;;;;5056258;28;20025;-69
2023/12/22 03:36:14;;;;;;;15.60;2.58;;;10.50;99.70;;;;;;5056323;28;20067;-70
2023/12/22 03:38:40;;;;;;;17.77;2.90;;;10.40;99.90;;;;;;5056348;28;20289;-64
2023/12/22 03:41:05;;;;;;;18.92;2.70;;;10.40;99.90;;;;;;5055598;28;20037;-70
2023/12/22 03:43:33;;;;;;;19.52;2.88;;;10.40;99.90;;;;;;5055697;28;20107;-68
2023/12/22 03:45:59;;;;;;;21.30;2.88;;;10.30;99.90;;;;;;5056155;28;20047;-69
2023/12/22 03:48:25;;;;;;;20.35;3.22;;;10.30;99.90;;;;;;5056400;28;20025;-71
2023/12/22 03:50:51;;;;;;;22.88;3.58;;;10.40;99.90;;;;;;5055490;28;20029;-69
2023/12/22 03:53:17;;;;;;;21.63;3.03;;;10.40;99.90;;;;;;5056132;28;20033;-68
2023/12/22 03:55:42;;;;;;;17.40;3.70;;;10.40;99.90;;;;;;5057871;28;20074;-67
2023/12/22 03:58:09;;;;;;;19.20;3.58;;;10.30;99.90;;;;;;5075646;28;20061;-68
2023/12/22 04:00:35;;;;;;;23.88;3.40;;;10.30;99.90;;;;;;5059797;28;20399;-68
2023/12/22 04:03:01;;;;;;;24.30;4.00;;;10.30;99.90;;;;;;5059846;28;20457;-66
2023/12/22 04:05:27;;;;;;;20.02;2.97;;;10.30;99.90;;;;;;5059708;28;20106;-69
2023/12/22 04:07:53;;;;;;;21.15;3.45;;;10.30;99.90;;;;;;5059664;28;20090;-69
2023/12/22 04:10:19;;;;;;;19.50;3.42;;;10.30;99.90;;;;;;5059599;28;20029;-65
2023/12/22 04:12:45;;;;;;;23.15;3.28;;;10.30;99.90;;;;;;5059838;28;20025;-68
2023/12/22 04:15:11;;;;;;;21.20;3.17;;;10.30;99.90;;;;;;5059592;28;20025;-66
2023/12/22 04:17:36;;;;;;;17.42;3.20;;;10.30;99.90;;;;;;5059523;28;20362;-65
2023/12/22 04:20:02;;;;;;;19.27;3.50;;;10.20;99.90;;;;;;5059483;28;20045;-70
2023/12/22 04:22:28;;;;;;;18.17;3.65;;;10.30;99.90;;;;;;5058544;28;20040;-65
2023/12/22 04:24:54;;;;;;;23.40;4.10;;;10.30;99.90;;;;;;5059451;28;20269;-65
2023/12/22 04:27:20;;;;;;;24.83;3.45;;;10.20;99.90;;;;;;5041954;28;20032;-67
2023/12/22 04:29:45;;;;;;;18.80;2.90;;;10.20;99.90;;;;;;5059199;28;20111;-64
2023/12/22 04:32:11;;;;;;;21.98;4.20;;;10.20;99.90;;;;;;5075206;28;20052;-66
2023/12/22 04:34:37;;;;;;;20.98;3.42;;;10.20;99.90;;;;;;5074975;28;20063;-68
2023/12/22 04:37:03;;;;;;;28.50;4.63;;;10.30;99.90;;;;;;5059020;28;20057;-68
2023/12/22 04:39:29;;;;;;;25.25;3.95;;;10.30;99.90;;;;;;5074949;28;20028;-69
2023/12/22 04:41:54;;;;;;;23.45;3.40;;;10.30;99.90;;;;;;5075009;28;20033;-66
2023/12/22 04:44:20;;;;;;;29.27;4.40;;;10.30;99.90;;;;;;5058877;28;20040;-68
2023/12/22 04:46:46;;;;;;;22.05;3.20;;;10.40;99.90;;;;;;5058028;28;20458;-65
2023/12/22 04:49:12;;;;;;;29.20;4.82;;;10.40;99.90;;;;;;5058669;28;20422;-66
2023/12/22 04:51:37;;;;;;;32.28;4.65;;;10.30;99.90;;;;;;5058752;28;20155;-68
2023/12/22 04:54:03;;;;;;;25.08;4.13;;;10.20;99.90;;;;;;5058555;28;20082;-66
2023/12/22 04:56:29;;;;;;;26.98;4.05;;;10.20;99.90;;;;;;5058618;28;20120;-66
2023/12/22 04:58:55;;;;;;;23.25;4.15;;;10.10;99.90;;;;;;5041301;28;20033;-65
2023/12/22 05:01:20;;;;;;;25.50;3.83;;;10.10;99.90;;;;;;5057880;28;20116;-67
2023/12/22 05:03:46;;;;;;;31.85;5.60;;;10.30;99.90;;;;;;5058527;28;20128;-66
2023/12/22 05:06:12;;;;;;;24.45;3.67;;;10.30;99.90;;;;;;5056719;28;20423;-64
2023/12/22 05:08:38;;;;;;;24.85;4.30;;;10.20;99.90;;;;;;5074331;28;20039;-64
2023/12/22 05:11:04;;;;;;;26.13;4.32;;;10.30;99.90;;;;;;5058670;28;20033;-64
2023/12/22 05:13:30;;;;;;;24.88;3.67;;;10.40;99.90;;;;;;5074409;28;20352;-67
2023/12/22 05:15:56;;;;;;;26.30;4.03;;;10.40;99.90;;;;;;5041098;28;20029;-69
2023/12/22 05:18:22;;;;;;;27.67;4.88;;;10.50;99.10;;;;;;5058285;28;20029;-70
2023/12/22 05:20:47;;;;;;;26.20;4.90;;;10.50;98.90;;;;;;5074073;28;20029;-67
2023/12/22 05:23:13;;;;;;;32.17;4.68;;;10.50;99.00;;;;;;5040974;28;20041;-69
2023/12/22 05:25:40;;;;;;;23.75;4.68;;;10.40;97.70;;;;;;5057552;28;20025;-68
2023/12/22 05:28:06;;;;;;;31.83;4.28;;;10.50;96.90;;;;;;5040776;28;20037;-67
2023/12/22 05:30:32;;;;;;;22.02;4.18;;;10.50;94.80;;;;;;5057926;28;20060;-66
2023/12/22 05:32:57;;;;;;;25.67;4.60;;;10.50;94.70;;;;;;5057925;28;20021;-69
2023/12/22 05:35:23;;;;;;;25.67;4.45;;;10.60;92.00;;;;;;5057887;28;20086;-67
2023/12/22 05:37:49;;;;;;;31.17;4.82;;;10.60;93.50;;;;;;5057790;28;20396;-68
2023/12/22 05:40:16;;;;;;;29.85;4.68;;;10.60;92.00;;;;;;5057200;28;20299;-67
2023/12/22 05:42:41;;;;;;;25.17;4.13;;;10.60;92.00;;;;;;5057019;28;20032;-67
2023/12/22 05:45:09;;;;;;;25.83;4.35;;;10.50;93.50;;;;;;5057749;28;20047;-71
2023/12/22 05:47:35;;;;;;;22.25;4.30;;;10.50;94.60;;;;;;5040575;28;20059;-70
2023/12/22 05:50:01;;;;;;;24.00;3.92;;;10.70;92.80;;;;;;5057717;28;20029;-68
2023/12/22 05:52:26;;;;;;;27.92;4.45;;;10.70;92.90;;;;;;5057058;28;20080;-67
2023/12/22 05:54:52;;;;;;;25.90;4.43;;;10.80;90.90;;;;;;5057710;28;20070;-68
2023/12/22 05:57:18;;;;;;;29.35;5.13;;;10.80;90.00;;;;;;5040255;28;20029;-67
2023/12/22 05:59:44;;;;;;;23.17;4.00;;;10.70;92.50;;;;;;5056849;28;20029;-69
2023/12/22 06:02:09;;;;;;;23.95;4.60;;;10.60;94.00;;;;;;5040094;28;20025;-70
2023/12/22 06:04:35;;;;;;;23.92;4.05;;;10.70;94.80;;;;;;5073069;28;20037;-67
2023/12/22 06:07:01;;;;;;;24.90;3.65;;;10.70;95.90;;;;;;5057237;28;20120;-68
2023/12/22 06:09:27;;;;;;;19.90;3.83;;;10.80;94.30;;;;;;5072963;28;20155;-68
2023/12/22 06:11:53;;;;;;;24.73;4.43;;;10.80;93.90;;;;;;5057199;28;20052;-69
2023/12/22 06:14:19;;;;;;;20.73;3.33;;;10.80;94.60;;;;;;5057179;28;20037;-71
2023/12/22 06:16:44;;;;;;;26.92;4.47;;;10.80;93.70;;;;;;5056959;28;20303;-72
2023/12/22 06:19:10;;;;;;;22.98;4.20;;;10.90;92.20;;;;;;5056769;28;20065;-69
2023/12/22 06:21:39;;;;;;;22.10;3.50;;;10.80;94.20;;;;;;5057085;28;20052;-70
2023/12/22 06:24:05;;;;;;;21.52;3.17;;;10.70;96.50;;;;;;5056396;28;20037;-67
2023/12/22 06:26:31;;;;;;;21.60;3.60;;;10.70;95.80;;;;;;5056563;28;20120;-71
2023/12/22 06:28:57;;;;;;;19.42;3.75;;;10.80;96.60;;;;;;5056850;28;20123;-70
2023/12/22 06:31:23;;;;;;;22.80;3.97;;;10.80;96.20;;;;;;5023422;28;20099;-69
2023/12/22 06:33:50;;;;;;;15.77;3.03;;;10.80;97.20;;;;;;5056324;28;20052;-70
2023/12/22 06:36:20;;;;;;;20.38;3.20;;;11.00;96.30;;;;;;5056983;28;20029;-68
2023/12/22 06:38:47;;;;;;;22.00;3.17;;;10.90;96.00;;;;;;5072650;28;20036;-68
2023/12/22 06:41:24;;;;;;;14.98;2.85;;;10.80;99.90;;;;;;5056891;28;20045;-68
2023/12/22 06:43:50;;;;;;;16.55;2.58;;;10.80;99.90;;;;;;5056790;28;20277;-67
2023/12/22 06:46:21;;;;;;;14.85;2.63;;;10.70;99.90;;;;;;5056766;28;20388;-64
2023/12/22 06:48:48;;;;;;;15.13;2.25;;;10.80;99.90;;;;;;5056040;28;20040;-69
2023/12/22 06:51:30;;;;;;;15.68;2.92;;;10.80;99.90;;;;;;5056710;28;20352;-66
2023/12/22 06:53:56;;;;;;;12.18;2.28;;;10.70;99.90;;;;;;5056879;28;20266;-66
2023/12/22 06:56:24;;;;;;;15.30;2.92;;;10.70;99.90;;;;;;5056530;28;20104;-66
2023/12/22 06:58:52;;;;;;;17.27;2.47;;;10.70;99.90;;;;;;5056472;28;20025;-69
2023/12/22 07:01:33;;;;;;;17.00;2.42;;;10.70;99.90;;;;;;5055850;28;20025;-69
2023/12/22 07:04:01;;;;;;;13.50;2.37;;;10.70;99.90;;;;;;5056524;28;20056;-69
2023/12/22 07:06:34;;;;;;;13.43;2.20;;;10.60;99.90;;;;;;5056414;28;20300;-66
2023/12/22 07:09:12;;;;;;;16.60;2.28;;;10.60;99.90;;;;;;5056563;28;20032;-67
2023/12/22 07:11:38;;;;;;;14.43;2.20;;;10.50;99.90;;;;;;5055695;28;20039;-65
2023/12/22 07:14:04;;;;;;;14.25;1.92;;;10.40;99.90;;;;;;5056522;28;20068;-69
2023/12/22 07:16:30;;;;;;;10.43;1.73;;;10.40;99.90;;;;;;5056523;28;20053;-68
2023/12/22 07:18:56;;;;;;;15.88;2.17;;;10.20;99.90;;;;;;5039258;28;20090;-69
2023/12/22 07:21:22;;;;;;;14.98;1.85;;;10.10;99.90;;;;;;5056442;28;20037;-68
2023/12/22 07:23:47;;;;;;;11.70;1.77;;;10.20;99.90;;;;;;5056420;28;20033;-69
2023/12/22 07:26:13;;;;;;;10.95;2.03;;;10.10;99.90;;;;;;5039136;28;20333;-68
2023/12/22 07:28:39;;;;;;;11.48;1.77;;;10.10;99.90;;;;;;5072203;28;20041;-65
2023/12/22 07:31:05;;;;;;;11.10;2.13;;;10.10;99.90;;;;;;5059664;28;20051;-67
2023/12/22 07:33:31;;;;;;;14.70;2.20;;;10.00;99.90;;;;;;5042629;28;20033;-66
2023/12/22 07:35:57;;;;;;;12.50;2.25;;;10.30;99.90;;;;;;5060307;28;20048;-67
2023/12/22 07:38:23;;;;;;;15.98;2.88;;;9.90;99.90;;;;;;5060187;28;20029;-65
2023/12/22 07:40:49;;;;;;;12.90;2.72;;;9.80;99.90;;;;;;5060107;28;20028;-67
2023/12/22 07:43:15;;;;;;;15.52;2.30;;;9.70;99.90;;;;;;5042908;28;20098;-66
2023/12/22 07:45:41;;;;;;;9.65;2.20;;;9.60;99.90;;;;;;5060005;28;20090;-63
2023/12/22 07:48:07;;;;;;;14.00;2.42;;;9.60;99.90;;;;;;5075635;28;20041;-67
2023/12/22 07:50:33;;;;;;;18.85;3.50;;;9.60;99.90;;;;;;5059951;28;20029;-66
2023/12/22 07:52:59;;;;;;;27.30;3.65;;;9.60;99.90;;;;;;5059831;28;20040;-62
2023/12/22 07:55:25;;;;;;;20.30;3.40;;;9.70;99.90;;;;;;5059835;28;20396;-64
2023/12/22 07:57:51;;;;;;;16.85;3.50;;;9.60;99.90;;;;;;5059799;28;20029;-63
2023/12/22 08:00:18;;;;;;;16.77;3.63;;;9.50;99.90;;;;;;5059690;28;20029;-63
2023/12/22 08:02:44;;;;;;;27.17;3.50;;;9.50;99.90;;;;;;5059597;28;20092;-63
2023/12/22 08:05:10;;;;;;;17.50;3.45;;;9.50;99.90;;;;;;5059598;28;20029;-63
2023/12/22 08:07:36;;;;;;;22.55;3.67;;;9.70;99.90;;;;;;5059612;28;20029;-66
2023/12/22 08:10:03;;;;;;;16.63;3.50;;;9.70;99.90;;;;;;5058792;28;20021;-63
2023/12/22 08:12:29;;;;;;;17.55;3.42;;;9.60;99.90;;;;;;5060013;28;20060;-63
2023/12/22 08:14:55;;;;;;;18.40;3.35;;;9.70;99.90;;;;;;5058558;28;20029;-64
2023/12/22 08:17:21;;;;;;;10.32;3.25;;;9.60;99.90;;;;;;5059658;28;20029;-63
2023/12/22 08:19:47;;;;;;;17.25;3.67;;;9.50;99.90;;;;;;5074936;28;20120;-66
2023/12/22 08:22:13;;;;;;;11.15;2.97;;;9.50;99.90;;;;;;5059265;28;20297;-64
2023/12/22 08:24:41;;;;;;;10.00;3.22;;;9.60;99.90;;;;;;5059163;28;20093;-66
2023/12/22 08:27:08;;;;;;;13.90;3.28;;;9.60;99.90;;;;;;5058239;28;20094;-67
2023/12/22 08:29:34;;;;;;;11.27;3.25;;;9.70;99.90;;;;;;5058935;28;20041;-69
2023/12/22 08:32:00;;;;;;;15.15;2.97;;;9.80;99.90;;;;;;5074986;28;20036;-69
2023/12/22 08:34:26;;;;;;;11.77;3.22;;;9.90;99.90;;;;;;5059131;28;20033;-68
2023/12/22 08:36:52;;;;;;;9.85;3.50;;;9.80;99.90;;;;;;5058879;28;20106;-70
2023/12/22 08:39:18;;;;;;;13.75;3.65;;;9.90;99.90;;;;;;5058257;28;20037;-71
2023/12/22 08:41:45;;;;;;;8.27;3.45;;;9.90;99.90;;;;;;5057711;28;20033;-71
2023/12/22 08:44:11;;;;;;;10.43;3.83;;;9.90;99.90;;;;;;5058796;28;20025;-71
2023/12/22 08:46:37;;;;;;;6.78;3.10;;;9.90;99.90;;;;;;5058063;28;20037;-71
2023/12/22 08:49:02;;;;;;;11.90;3.95;;;10.00;99.90;;;;;;5057892;28;20112;-69
2023/12/22 08:51:29;;;;;;;9.38;3.30;;;10.10;99.90;;;;;;5057735;28;20331;-70
2023/12/22 08:53:55;;;;;;;7.57;3.20;;;10.00;99.90;;;;;;5058725;28;20036;-70
2023/12/22 08:56:22;;;;;;;10.75;3.17;;;10.10;99.90;;;;;;5058551;28;20343;-71
2023/12/22 08:58:51;;;;;;;10.95;2.92;;;10.10;99.90;;;;;;5058504;28;20120;-65
2023/12/22 09:01:18;;;;;;;7.68;2.95;;;10.10;99.90;;;;;;5058537;28;20052;-69
2023/12/22 09:03:47;;;;;;;6.88;2.78;;;10.10;99.90;;;;;;5058428;28;20041;-70
2023/12/22 09:06:18;;;;;;;5.70;2.97;;;10.20;99.90;;;;;;5058402;28;20297;-68
2023/12/22 09:08:46;;;;;;;8.73;2.90;;;10.30;99.90;;;;;;5058342;28;20041;-68
2023/12/22 09:11:17;;;;;;;9.00;2.65;;;10.30;99.90;;;;;;5058422;28;20335;-67
2023/12/22 09:13:43;;;;;;;7.47;3.33;;;10.30;99.90;;;;;;5058504;28;20055;-65
2023/12/22 09:16:09;;;;;;;9.07;2.72;;;10.30;99.90;;;;;;5058251;28;20297;-66
2023/12/22 09:18:36;;;;;;;10.98;3.17;;;10.30;99.90;;;;;;5057313;28;20025;-70
2023/12/22 09:21:02;;;;;;;11.48;3.58;;;10.20;99.90;;;;;;5058319;28;20021;-70
2023/12/22 09:23:29;;;;;;;11.27;3.13;;;10.20;99.90;;;;;;5058174;28;20320;-69
2023/12/22 09:25:55;;;;;;;6.60;3.17;;;10.20;99.90;;;;;;5058098;28;20032;-68
2023/12/22 09:28:20;;;;;;;9.23;2.67;;;10.20;99.90;;;;;;5057947;28;20021;-67
2023/12/22 09:30:46;;;;;;;9.40;2.70;;;10.30;99.90;;;;;;5073754;28;20118;-65
2023/12/22 09:33:12;;;;;;;9.93;2.72;;;10.30;99.90;;;;;;5057873;28;20047;-67
2023/12/22 09:35:41;;;;;;;7.80;2.30;;;10.30;99.90;;;;;;5073915;28;20036;-68
2023/12/22 09:38:12;;;;;;;8.63;2.65;;;10.20;99.90;;;;;;5057919;28;20139;-68
2023/12/22 09:40:41;;;;;;;8.32;2.42;;;10.20;99.90;;;;;;5057871;28;20025;-68
2023/12/22 09:43:12;;;;;;;13.95;2.53;;;10.20;99.90;;;;;;5057823;28;20300;-66
2023/12/22 09:45:39;;;;;;;10.57;2.53;;;10.30;99.90;;;;;;5056955;28;20094;-65
2023/12/22 09:48:06;;;;;;;7.32;1.60;;;10.30;99.90;;;;;;5057510;28;20083;-67
2023/12/22 09:50:33;;;;;;;10.00;1.95;;;10.30;99.90;;;;;;5057765;28;20037;-68
2023/12/22 09:53:01;;;;;;;5.03;1.20;;;10.30;99.90;;;;;;5056569;28;20033;-64
2023/12/22 09:55:28;;;;;;;8.70;1.45;;;10.40;99.90;;;;;;5057548;28;20025;-65
2023/12/22 09:57:56;;;;;;;9.73;1.52;;;10.40;99.90;;;;;;5057623;28;20312;-67
2023/12/22 10:00:23;;;;;;;7.32;1.55;;;10.40;99.90;;;;;;5057383;28;20396;-70
2023/12/22 10:02:49;;;;;;;15.05;1.80;;;10.50;99.90;;;;;;5057615;28;20281;-69
2023/12/22 10:05:17;;;;;;;6.60;1.30;;;10.50;99.90;;;;;;5056525;28;20040;-68
2023/12/22 10:07:45;;;;;;;7.50;1.15;;;10.50;99.90;;;;;;5057462;28;20047;-69
2023/12/22 10:10:12;;;;;;;6.65;1.20;;;10.50;99.90;;;;;;5057339;28;20033;-66
2023/12/22 10:12:39;;;;;;;9.18;1.50;;;10.50;99.90;;;;;;5057168;28;20021;-67
2023/12/22 10:15:07;;;;;;;9.77;1.23;;;10.60;99.90;;;;;;5057190;28;20039;-67
2023/12/22 10:17:34;;;;;;;7.50;1.50;;;10.60;99.90;;;;;;5056415;28;20048;-67
2023/12/22 10:20:00;;;;;;;6.05;1.10;;;10.50;99.90;;;;;;5056320;28;20025;-72
2023/12/22 10:22:26;;;;;;;3.28;0.80;;;10.60;99.90;;;;;;5057194;28;20033;-71
2023/12/22 10:24:51;;;;;;;4.47;0.80;;;10.60;99.90;;;;;;5073182;28;20029;-68
2023/12/22 10:27:22;;;;;;;6.10;1.10;;;10.60;99.90;;;;;;5057098;28;20115;-67
2023/12/22 10:29:55;;;;;;;11.25;0.80;;;10.70;99.90;;;;;;5057127;28;20156;-69
2023/12/22 10:32:22;;;;;;;3.53;1.00;;;10.70;99.90;;;;;;5072848;28;20021;-68
2023/12/22 10:34:48;;;;;;;6.80;0.93;;;10.70;99.90;;;;;;5057043;28;20033;-71
2023/12/22 10:37:15;;;;;;;5.75;0.70;;;10.70;99.90;;;;;;5072845;28;20044;-67
2023/12/22 10:39:41;;;;;;;5.35;1.08;;;10.80;99.90;;;;;;5056841;28;20082;-66
2023/12/22 10:42:07;;;;;;;5.05;0.90;;;10.80;99.90;;;;;;5055784;28;20072;-68
2023/12/22 10:44:33;;;;;;;11.30;1.60;;;10.90;99.90;;;;;;5056853;28;20037;-66
2023/12/22 10:47:00;;;;;;;3.17;0.80;;;10.90;99.90;;;;;;5056456;28;20304;-69
2023/12/22 10:49:26;;;;;;;7.68;1.10;;;10.90;99.90;;;;;;5056424;28;20021;-71
2023/12/22 10:51:52;;;;;;;4.60;0.70;;;11.00;99.90;;;;;;5055778;28;20040;-69
2023/12/22 10:54:19;;;;;;;7.07;1.08;;;11.10;99.90;;;;;;5056393;28;20170;-65
2023/12/22 10:56:45;;;;;;;4.70;0.93;;;11.20;99.90;;;;;;5056586;28;20078;-67
2023/12/22 10:59:11;;;;;;;5.70;1.08;;;11.20;99.90;;;;;;5056636;28;20409;-68
2023/12/22 11:01:40;;;;;;;4.05;0.80;;;11.20;99.90;;;;;;5056816;28;20055;-69
2023/12/22 11:04:13;;;;;;;6.00;1.10;;;11.20;99.90;;;;;;5055889;28;20300;-68
2023/12/22 11:06:42;;;;;;;2.70;0.80;;;11.20;99.90;;;;;;5056139;28;20404;-66
2023/12/22 11:09:09;;;;;;;5.38;0.80;;;11.30;99.90;;;;;;5055828;28;20021;-70
2023/12/22 11:11:37;;;;;;;5.30;0.88;;;11.30;99.90;;;;;;5039407;28;20033;-69
2023/12/22 11:14:04;;;;;;;8.27;1.30;;;11.30;99.90;;;;;;5039536;28;20316;-69
2023/12/22 11:16:35;;;;;;;3.38;0.90;;;11.20;99.90;;;;;;5056790;28;20032;-69
2023/12/22 11:19:03;;;;;;;3.33;0.77;;;11.10;99.90;;;;;;5056643;28;20041;-69
2023/12/22 11:21:29;;;;;;;6.10;1.30;;;11.00;99.90;;;;;;5056526;28;20104;-68
2023/12/22 11:23:57;;;;;;;7.57;0.90;;;10.90;99.90;;;;;;5056514;28;20351;-69
2023/12/22 11:26:24;;;;;;;5.43;1.00;;;10.90;99.90;;;;;;5056354;28;20389;-68
2023/12/22 11:28:51;;;;;;;6.72;1.00;;;10.90;99.90;;;;;;5056278;28;20071;-70
2023/12/22 11:31:18;;;;;;;2.80;0.85;;;10.80;99.90;;;;;;5056583;28;20028;-67
2023/12/22 11:33:49;;;;;;;7.95;1.27;;;10.70;99.90;;;;;;5056409;28;20017;-70
2023/12/22 11:36:18;;;;;;;12.73;1.60;;;10.80;99.90;;;;;;5056469;28;20398;-68
2023/12/22 11:38:45;;;;;;;5.65;1.40;;;10.90;99.90;;;;;;5055671;28;20067;-68
2023/12/22 11:41:23;;;;;;;4.80;1.13;;;10.80;99.90;;;;;;5056312;28;20021;-69
2023/12/22 11:43:50;;;;;;;7.10;1.30;;;10.80;99.90;;;;;;5056385;28;20391;-68
2023/12/22 11:46:20;;;;;;;5.20;1.00;;;10.80;99.90;;;;;;5056455;28;20314;-69
2023/12/22 11:48:51;;;;;;;7.22;1.08;;;10.80;99.90;;;;;;5055933;28;20301;-71
2023/12/22 11:51:17;;;;;;;7.60;0.93;;;10.90;99.90;;;;;;5055712;28;20165;-68
2023/12/22 11:53:44;;;;;;;6.53;0.93;;;11.00;99.90;;;;;;5072158;28;20419;-70
2023/12/22 11:56:12;;;;;;;6.45;1.10;;;11.00;99.90;;;;;;5056104;28;20021;-68
2023/12/22 11:58:42;;;;;;;7.15;1.13;;;11.10;99.90;;;;;;5055922;28;20029;-67
2023/12/22 12:01:13;;;;;;;7.68;1.25;;;11.20;99.90;;;;;;5055266;28;20044;-67
2023/12/22 12:03:49;;;;;;;8.93;1.02;;;11.30;99.90;;;;;;5055148;28;20397;-70
2023/12/22 12:06:30;;;;;;;4.53;0.90;;;11.40;99.90;;;;;;5071911;28;20041;-71
2023/12/22 12:08:56;;;;;;;5.65;0.82;;;11.50;99.90;;;;;;5055943;28;20396;-70
2023/12/22 12:11:23;;;;;;;6.57;1.10;;;11.60;99.90;;;;;;5055269;28;20116;-65
2023/12/22 12:13:50;;;;;;;5.50;0.98;;;11.60;99.90;;;;;;5056028;28;20028;-69
2023/12/22 12:16:23;;;;;;;5.85;0.95;;;11.60;99.90;;;;;;5056936;28;20115;-67
2023/12/22 12:18:52;;;;;;;6.25;0.93;;;11.70;99.90;;;;;;5059500;28;20273;-69
2023/12/22 12:21:18;;;;;;;5.88;1.20;;;11.70;99.90;;;;;;5075298;28;20033;-68
2023/12/22 12:23:44;;;;;;;6.45;0.88;;;11.70;99.90;;;;;;5075284;28;20025;-67
2023/12/22 12:26:12;;;;;;;3.67;0.98;;;11.70;99.90;;;;;;5059366;28;20040;-66
2023/12/22 12:28:38;;;;;;;7.57;1.60;;;11.70;99.90;;;;;;5074987;28;20029;-70
2023/12/22 12:31:08;;;;;;;5.55;0.90;;;11.80;99.90;;;;;;5059409;28;20113;-65
2023/12/22 12:33:38;;;;;;;4.00;0.88;;;11.70;99.90;;;;;;5059328;28;20021;-65
2023/12/22 12:36:04;;;;;;;3.15;0.80;;;11.80;99.90;;;;;;5058659;28;20040;-70
2023/12/22 12:38:44;;;;;;;5.63;1.02;;;11.80;99.90;;;;;;5058453;28;20048;-64